Hornsby, Illinois
Current Conditions -  °F | °C
As of 3:15 PM on Wednesday 26 Nov 2014 (Local Time) from K3LF Reporting Station
Moderate Snow Moderate Snow  
Wind Chill: 25°   Ceiling: 600
Heat Index: 32°   Visibility: 0.75mi
Dew Point: 30°   Wind: 8mph
Humidity: 93%   Direction: 100°E
Pressure: 30.01"   Gusts: NA
Location:  39.1865°N, 89.679°W
Report Text: K3LF 262115Z AUTO 10007KT 3/4SM SN OVC006 00/M01 A3001 RMK AO2 T00001010
Loading
Personal Weather Stations






























Interactive Weather Map New forecast layout! Learn more

10-Day Weather Forecast

Advertisements
Track Severe Weather on mobile